sensor_id;sensor_type;location;lat;lon;timestamp;temperature;humidity
60701;DHT22;46541;49.894;10.886;2023-03-14T00:01:29;10.70;99.90
60701;DHT22;46541;49.894;10.886;2023-03-14T00:03:55;10.70;99.90
60701;DHT22;46541;49.894;10.886;2023-03-14T00:06:23;10.70;99.90
60701;DHT22;46541;49.894;10.886;2023-03-14T00:08:49;10.70;99.90
60701;DHT22;46541;49.894;10.886;2023-03-14T00:11:20;10.70;99.90
60701;DHT22;46541;49.894;10.886;2023-03-14T00:13:48;10.70;99.90
60701;DHT22;46541;49.894;10.886;2023-03-14T00:16:15;10.60;99.90
60701;DHT22;46541;49.894;10.886;2023-03-14T00:18:42;10.60;99.90
60701;DHT22;46541;49.894;10.886;2023-03-14T00:21:10;10.60;99.90
60701;DHT22;46541;49.894;10.886;2023-03-14T00:23:39;10.60;99.90
60701;DHT22;46541;49.894;10.886;2023-03-14T00:26:09;10.60;99.90
60701;DHT22;46541;49.894;10.886;2023-03-14T00:28:36;10.60;99.90
60701;DHT22;46541;49.894;10.886;2023-03-14T00:31:05;10.60;99.90
60701;DHT22;46541;49.894;10.886;2023-03-14T00:33:32;10.60;99.90
60701;DHT22;46541;49.894;10.886;2023-03-14T00:36:02;10.60;99.90
60701;DHT22;46541;49.894;10.886;2023-03-14T00:38:31;10.60;99.90
60701;DHT22;46541;49.894;10.886;2023-03-14T00:40:58;10.60;99.90
60701;DHT22;46541;49.894;10.886;2023-03-14T00:43:24;10.60;99.90
60701;DHT22;46541;49.894;10.886;2023-03-14T00:45:52;10.60;99.90
60701;DHT22;46541;49.894;10.886;2023-03-14T00:48:19;10.60;99.90
60701;DHT22;46541;49.894;10.886;2023-03-14T00:50:47;10.60;99.90
60701;DHT22;46541;49.894;10.886;2023-03-14T00:53:13;10.60;99.90
60701;DHT22;46541;49.894;10.886;2023-03-14T00:55:42;10.60;99.90
60701;DHT22;46541;49.894;10.886;2023-03-14T00:58:14;10.60;99.90
60701;DHT22;46541;49.894;10.886;2023-03-14T01:00:41;10.60;99.90
60701;DHT22;46541;49.894;10.886;2023-03-14T01:03:09;10.60;99.90
60701;DHT22;46541;49.894;10.886;2023-03-14T01:05:36;10.60;99.90
60701;DHT22;46541;49.894;10.886;2023-03-14T01:08:05;10.60;99.90
60701;DHT22;46541;49.894;10.886;2023-03-14T01:10:34;10.60;99.90
60701;DHT22;46541;49.894;10.886;2023-03-14T01:13:01;10.60;99.90
60701;DHT22;46541;49.894;10.886;2023-03-14T01:15:27;10.60;99.90
60701;DHT22;46541;49.894;10.886;2023-03-14T01:17:54;10.60;99.90
60701;DHT22;46541;49.894;10.886;2023-03-14T01:20:21;10.60;99.90
60701;DHT22;46541;49.894;10.886;2023-03-14T01:22:47;10.60;99.90
60701;DHT22;46541;49.894;10.886;2023-03-14T01:25:16;10.60;99.90
60701;DHT22;46541;49.894;10.886;2023-03-14T01:27:43;10.60;99.90
60701;DHT22;46541;49.894;10.886;2023-03-14T01:30:11;10.60;99.90
60701;DHT22;46541;49.894;10.886;2023-03-14T01:32:39;10.60;99.90
60701;DHT22;46541;49.894;10.886;2023-03-14T01:35:06;10.60;99.90
60701;DHT22;46541;49.894;10.886;2023-03-14T01:37:33;10.60;99.90
60701;DHT22;46541;49.894;10.886;2023-03-14T01:39:59;10.60;99.90
60701;DHT22;46541;49.894;10.886;2023-03-14T01:42:26;10.60;99.90
60701;DHT22;46541;49.894;10.886;2023-03-14T01:45:00;10.60;99.90
60701;DHT22;46541;49.894;10.886;2023-03-14T01:47:27;10.70;99.90
60701;DHT22;46541;49.894;10.886;2023-03-14T01:50:08;10.70;99.90
60701;DHT22;46541;49.894;10.886;2023-03-14T01:52:43;10.70;99.90
60701;DHT22;46541;49.894;10.886;2023-03-14T01:55:14;10.70;99.90
60701;DHT22;46541;49.894;10.886;2023-03-14T01:57:46;10.70;99.90
60701;DHT22;46541;49.894;10.886;2023-03-14T02:00:16;10.70;99.90
60701;DHT22;46541;49.894;10.886;2023-03-14T02:03:05;10.70;99.90
60701;DHT22;46541;49.894;10.886;2023-03-14T02:05:35;10.70;99.90
60701;DHT22;46541;49.894;10.886;2023-03-14T02:08:07;10.70;99.90
60701;DHT22;46541;49.894;10.886;2023-03-14T02:10:47;10.70;99.90
60701;DHT22;46541;49.894;10.886;2023-03-14T02:13:17;10.70;99.90
60701;DHT22;46541;49.894;10.886;2023-03-14T02:15:44;10.70;99.90
60701;DHT22;46541;49.894;10.886;2023-03-14T02:18:13;10.70;99.90
60701;DHT22;46541;49.894;10.886;2023-03-14T02:20:55;10.70;99.90
60701;DHT22;46541;49.894;10.886;2023-03-14T02:23:53;10.70;99.90
60701;DHT22;46541;49.894;10.886;2023-03-14T02:26:35;10.70;99.90
60701;DHT22;46541;49.894;10.886;2023-03-14T02:29:03;10.70;99.90
60701;DHT22;46541;49.894;10.886;2023-03-14T02:31:30;10.70;99.90
60701;DHT22;46541;49.894;10.886;2023-03-14T02:33:57;10.70;99.90
60701;DHT22;46541;49.894;10.886;2023-03-14T02:36:25;10.70;99.90
60701;DHT22;46541;49.894;10.886;2023-03-14T02:39:10;10.70;99.90
60701;DHT22;46541;49.894;10.886;2023-03-14T02:41:38;10.70;99.90
60701;DHT22;46541;49.894;10.886;2023-03-14T02:44:05;10.70;99.90
60701;DHT22;46541;49.894;10.886;2023-03-14T02:46:31;10.70;99.90
60701;DHT22;46541;49.894;10.886;2023-03-14T02:49:03;10.70;99.90
60701;DHT22;46541;49.894;10.886;2023-03-14T02:51:30;10.60;99.90
60701;DHT22;46541;49.894;10.886;2023-03-14T02:53:56;10.60;99.90
60701;DHT22;46541;49.894;10.886;2023-03-14T02:56:23;10.60;99.90
60701;DHT22;46541;49.894;10.886;2023-03-14T02:58:50;10.70;99.90
60701;DHT22;46541;49.894;10.886;2023-03-14T03:01:17;10.60;99.90
60701;DHT22;46541;49.894;10.886;2023-03-14T03:03:43;10.60;99.90
60701;DHT22;46541;49.894;10.886;2023-03-14T03:06:10;10.60;99.90
60701;DHT22;46541;49.894;10.886;2023-03-14T03:08:37;10.60;99.90
60701;DHT22;46541;49.894;10.886;2023-03-14T03:11:04;10.60;99.90
60701;DHT22;46541;49.894;10.886;2023-03-14T03:13:31;10.60;99.90
60701;DHT22;46541;49.894;10.886;2023-03-14T03:15:58;10.60;99.90
60701;DHT22;46541;49.894;10.886;2023-03-14T03:18:25;10.60;99.90
60701;DHT22;46541;49.894;10.886;2023-03-14T03:20:51;10.50;99.90
60701;DHT22;46541;49.894;10.886;2023-03-14T03:23:18;10.50;99.90
60701;DHT22;46541;49.894;10.886;2023-03-14T03:25:49;10.50;99.90
60701;DHT22;46541;49.894;10.886;2023-03-14T03:28:16;10.50;99.90
60701;DHT22;46541;49.894;10.886;2023-03-14T03:30:43;10.50;99.90
60701;DHT22;46541;49.894;10.886;2023-03-14T03:33:11;10.50;99.90
60701;DHT22;46541;49.894;10.886;2023-03-14T03:35:49;10.50;99.90
60701;DHT22;46541;49.894;10.886;2023-03-14T03:38:16;10.60;99.90
60701;DHT22;46541;49.894;10.886;2023-03-14T03:40:43;10.60;99.90
60701;DHT22;46541;49.894;10.886;2023-03-14T03:43:10;10.50;99.90
60701;DHT22;46541;49.894;10.886;2023-03-14T03:45:36;10.50;99.90
60701;DHT22;46541;49.894;10.886;2023-03-14T03:48:04;10.50;99.90
60701;DHT22;46541;49.894;10.886;2023-03-14T03:50:30;10.40;99.90
60701;DHT22;46541;49.894;10.886;2023-03-14T03:52:57;10.40;99.90
60701;DHT22;46541;49.894;10.886;2023-03-14T03:55:24;10.40;99.90
60701;DHT22;46541;49.894;10.886;2023-03-14T03:57:52;10.40;99.90
60701;DHT22;46541;49.894;10.886;2023-03-14T04:00:19;10.40;99.90
60701;DHT22;46541;49.894;10.886;2023-03-14T04:02:45;10.40;99.90
60701;DHT22;46541;49.894;10.886;2023-03-14T04:05:12;10.40;99.90
60701;DHT22;46541;49.894;10.886;2023-03-14T04:07:39;10.40;99.90
60701;DHT22;46541;49.894;10.886;2023-03-14T04:10:06;10.40;99.90
60701;DHT22;46541;49.894;10.886;2023-03-14T04:12:32;10.40;99.90
60701;DHT22;46541;49.894;10.886;2023-03-14T04:14:59;10.40;99.90
60701;DHT22;46541;49.894;10.886;2023-03-14T04:17:26;10.40;99.90
60701;DHT22;46541;49.894;10.886;2023-03-14T04:19:52;10.40;99.90
60701;DHT22;46541;49.894;10.886;2023-03-14T04:22:20;10.40;99.90
60701;DHT22;46541;49.894;10.886;2023-03-14T04:24:47;10.40;99.90
60701;DHT22;46541;49.894;10.886;2023-03-14T04:27:14;10.30;99.90
60701;DHT22;46541;49.894;10.886;2023-03-14T04:29:42;10.30;99.90
60701;DHT22;46541;49.894;10.886;2023-03-14T04:32:09;10.30;99.90
60701;DHT22;46541;49.894;10.886;2023-03-14T04:34:36;10.30;99.90
60701;DHT22;46541;49.894;10.886;2023-03-14T04:37:03;10.20;99.90
60701;DHT22;46541;49.894;10.886;2023-03-14T04:39:29;10.30;99.90
60701;DHT22;46541;49.894;10.886;2023-03-14T04:41:56;10.30;99.90
60701;DHT22;46541;49.894;10.886;2023-03-14T04:44:23;10.30;99.90
60701;DHT22;46541;49.894;10.886;2023-03-14T04:46:49;10.30;99.90
60701;DHT22;46541;49.894;10.886;2023-03-14T04:49:16;10.20;99.90
60701;DHT22;46541;49.894;10.886;2023-03-14T04:51:43;10.20;99.90
60701;DHT22;46541;49.894;10.886;2023-03-14T04:54:10;10.30;99.90
60701;DHT22;46541;49.894;10.886;2023-03-14T04:56:36;10.20;99.90
60701;DHT22;46541;49.894;10.886;2023-03-14T04:59:04;10.30;99.90
60701;DHT22;46541;49.894;10.886;2023-03-14T05:01:30;10.30;99.90
60701;DHT22;46541;49.894;10.886;2023-03-14T05:03:57;10.30;99.90
60701;DHT22;46541;49.894;10.886;2023-03-14T05:06:24;10.30;99.90
60701;DHT22;46541;49.894;10.886;2023-03-14T05:08:51;10.30;99.90
60701;DHT22;46541;49.894;10.886;2023-03-14T05:11:18;10.30;99.90
60701;DHT22;46541;49.894;10.886;2023-03-14T05:13:44;10.30;99.90
60701;DHT22;46541;49.894;10.886;2023-03-14T05:16:11;10.30;99.90
60701;DHT22;46541;49.894;10.886;2023-03-14T05:18:38;10.30;99.90
60701;DHT22;46541;49.894;10.886;2023-03-14T05:21:05;10.30;99.90
60701;DHT22;46541;49.894;10.886;2023-03-14T05:23:31;10.30;99.90
60701;DHT22;46541;49.894;10.886;2023-03-14T05:25:58;10.30;99.90
60701;DHT22;46541;49.894;10.886;2023-03-14T05:28:25;10.30;99.90
60701;DHT22;46541;49.894;10.886;2023-03-14T05:30:52;10.20;99.90
60701;DHT22;46541;49.894;10.886;2023-03-14T05:33:19;10.20;99.90
60701;DHT22;46541;49.894;10.886;2023-03-14T05:35:46;10.20;99.90
60701;DHT22;46541;49.894;10.886;2023-03-14T05:38:13;10.20;99.90
60701;DHT22;46541;49.894;10.886;2023-03-14T05:40:39;10.20;99.90
60701;DHT22;46541;49.894;10.886;2023-03-14T05:43:06;10.10;99.90
60701;DHT22;46541;49.894;10.886;2023-03-14T05:45:35;10.20;99.90
60701;DHT22;46541;49.894;10.886;2023-03-14T05:48:02;10.10;99.90
60701;DHT22;46541;49.894;10.886;2023-03-14T05:50:28;10.10;99.90
60701;DHT22;46541;49.894;10.886;2023-03-14T05:52:55;10.20;99.90
60701;DHT22;46541;49.894;10.886;2023-03-14T05:55:22;10.20;99.90
60701;DHT22;46541;49.894;10.886;2023-03-14T05:57:49;10.10;99.90
60701;DHT22;46541;49.894;10.886;2023-03-14T06:00:16;10.10;99.90
60701;DHT22;46541;49.894;10.886;2023-03-14T06:02:43;10.10;99.90
60701;DHT22;46541;49.894;10.886;2023-03-14T06:05:09;10.10;99.90
60701;DHT22;46541;49.894;10.886;2023-03-14T06:07:36;10.10;99.90
60701;DHT22;46541;49.894;10.886;2023-03-14T06:10:03;10.20;99.90
60701;DHT22;46541;49.894;10.886;2023-03-14T06:12:30;10.20;99.90
60701;DHT22;46541;49.894;10.886;2023-03-14T06:14:57;10.20;99.90
60701;DHT22;46541;49.894;10.886;2023-03-14T06:17:23;10.20;99.90
60701;DHT22;46541;49.894;10.886;2023-03-14T06:19:50;10.20;99.90
60701;DHT22;46541;49.894;10.886;2023-03-14T06:22:17;10.20;99.90
60701;DHT22;46541;49.894;10.886;2023-03-14T06:24:43;10.20;99.90
60701;DHT22;46541;49.894;10.886;2023-03-14T06:27:10;10.20;99.90
60701;DHT22;46541;49.894;10.886;2023-03-14T06:29:37;10.20;99.90
60701;DHT22;46541;49.894;10.886;2023-03-14T06:32:04;10.20;99.90
60701;DHT22;46541;49.894;10.886;2023-03-14T06:34:31;10.30;99.90
60701;DHT22;46541;49.894;10.886;2023-03-14T06:36:58;10.30;99.90
60701;DHT22;46541;49.894;10.886;2023-03-14T06:39:25;10.40;99.90
60701;DHT22;46541;49.894;10.886;2023-03-14T06:41:51;10.40;99.90
60701;DHT22;46541;49.894;10.886;2023-03-14T06:44:18;10.50;99.90
60701;DHT22;46541;49.894;10.886;2023-03-14T06:46:45;10.50;99.90
60701;DHT22;46541;49.894;10.886;2023-03-14T06:49:11;10.60;99.90
60701;DHT22;46541;49.894;10.886;2023-03-14T06:51:38;10.60;99.90
60701;DHT22;46541;49.894;10.886;2023-03-14T06:54:05;10.70;99.90
60701;DHT22;46541;49.894;10.886;2023-03-14T06:56:31;10.70;99.90
60701;DHT22;46541;49.894;10.886;2023-03-14T06:58:58;10.70;99.90
60701;DHT22;46541;49.894;10.886;2023-03-14T07:01:28;10.80;99.90
60701;DHT22;46541;49.894;10.886;2023-03-14T07:03:56;10.80;99.90
60701;DHT22;46541;49.894;10.886;2023-03-14T07:06:23;10.80;99.90
60701;DHT22;46541;49.894;10.886;2023-03-14T07:08:49;10.80;99.90
60701;DHT22;46541;49.894;10.886;2023-03-14T07:11:16;10.90;99.90
60701;DHT22;46541;49.894;10.886;2023-03-14T07:13:43;11.00;99.90
60701;DHT22;46541;49.894;10.886;2023-03-14T07:16:10;10.90;99.90
60701;DHT22;46541;49.894;10.886;2023-03-14T07:18:36;11.00;99.90
60701;DHT22;46541;49.894;10.886;2023-03-14T07:21:07;11.00;99.90
60701;DHT22;46541;49.894;10.886;2023-03-14T07:23:35;11.00;99.90
60701;DHT22;46541;49.894;10.886;2023-03-14T07:26:02;10.90;99.90
60701;DHT22;46541;49.894;10.886;2023-03-14T07:28:29;10.90;99.90
60701;DHT22;46541;49.894;10.886;2023-03-14T07:30:56;10.90;99.90
60701;DHT22;46541;49.894;10.886;2023-03-14T07:33:23;10.90;99.90
60701;DHT22;46541;49.894;10.886;2023-03-14T07:35:49;11.00;99.90
60701;DHT22;46541;49.894;10.886;2023-03-14T07:38:16;11.00;99.90
60701;DHT22;46541;49.894;10.886;2023-03-14T07:40:43;11.10;99.90
60701;DHT22;46541;49.894;10.886;2023-03-14T07:43:10;11.10;99.90
60701;DHT22;46541;49.894;10.886;2023-03-14T07:45:37;11.10;99.90
60701;DHT22;46541;49.894;10.886;2023-03-14T07:48:08;11.20;99.90
60701;DHT22;46541;49.894;10.886;2023-03-14T07:50:35;11.20;99.90
60701;DHT22;46541;49.894;10.886;2023-03-14T07:53:02;11.20;99.90
60701;DHT22;46541;49.894;10.886;2023-03-14T07:55:28;11.30;99.90
60701;DHT22;46541;49.894;10.886;2023-03-14T07:57:55;11.40;99.90
60701;DHT22;46541;49.894;10.886;2023-03-14T08:00:22;11.40;99.90
60701;DHT22;46541;49.894;10.886;2023-03-14T08:02:48;11.50;99.90
60701;DHT22;46541;49.894;10.886;2023-03-14T08:05:15;11.60;99.90
60701;DHT22;46541;49.894;10.886;2023-03-14T08:07:42;11.70;99.90
60701;DHT22;46541;49.894;10.886;2023-03-14T08:10:09;11.90;99.90
60701;DHT22;46541;49.894;10.886;2023-03-14T08:12:36;11.90;99.90
60701;DHT22;46541;49.894;10.886;2023-03-14T08:15:03;11.90;99.90
60701;DHT22;46541;49.894;10.886;2023-03-14T08:17:30;11.90;99.90
60701;DHT22;46541;49.894;10.886;2023-03-14T08:19:56;12.10;99.90
60701;DHT22;46541;49.894;10.886;2023-03-14T08:22:23;12.10;99.90
60701;DHT22;46541;49.894;10.886;2023-03-14T08:24:50;12.20;99.90
60701;DHT22;46541;49.894;10.886;2023-03-14T08:27:16;12.30;99.90
60701;DHT22;46541;49.894;10.886;2023-03-14T08:29:43;12.40;99.90
60701;DHT22;46541;49.894;10.886;2023-03-14T08:32:10;12.40;99.90
60701;DHT22;46541;49.894;10.886;2023-03-14T08:34:37;12.40;99.90
60701;DHT22;46541;49.894;10.886;2023-03-14T08:37:05;12.30;99.90
60701;DHT22;46541;49.894;10.886;2023-03-14T08:39:41;12.20;99.90
60701;DHT22;46541;49.894;10.886;2023-03-14T08:42:08;12.20;99.90
60701;DHT22;46541;49.894;10.886;2023-03-14T08:44:35;12.30;99.90
60701;DHT22;46541;49.894;10.886;2023-03-14T08:47:02;12.30;99.90
60701;DHT22;46541;49.894;10.886;2023-03-14T08:49:28;12.30;99.90
60701;DHT22;46541;49.894;10.886;2023-03-14T08:51:55;12.30;99.90
60701;DHT22;46541;49.894;10.886;2023-03-14T08:54:22;12.20;99.90
60701;DHT22;46541;49.894;10.886;2023-03-14T08:56:48;12.30;99.90
60701;DHT22;46541;49.894;10.886;2023-03-14T08:59:15;12.30;99.90
60701;DHT22;46541;49.894;10.886;2023-03-14T09:01:42;12.20;99.90
60701;DHT22;46541;49.894;10.886;2023-03-14T09:04:09;12.30;99.90
60701;DHT22;46541;49.894;10.886;2023-03-14T09:06:36;12.30;99.90
60701;DHT22;46541;49.894;10.886;2023-03-14T09:09:03;12.30;99.90
60701;DHT22;46541;49.894;10.886;2023-03-14T09:11:29;12.30;99.90
60701;DHT22;46541;49.894;10.886;2023-03-14T09:13:56;12.30;99.90
60701;DHT22;46541;49.894;10.886;2023-03-14T09:16:23;12.30;99.90
60701;DHT22;46541;49.894;10.886;2023-03-14T09:18:50;12.30;99.90
60701;DHT22;46541;49.894;10.886;2023-03-14T09:21:20;12.20;99.90
60701;DHT22;46541;49.894;10.886;2023-03-14T09:23:47;12.10;99.90
60701;DHT22;46541;49.894;10.886;2023-03-14T09:26:14;12.10;99.90
60701;DHT22;46541;49.894;10.886;2023-03-14T09:28:41;12.20;99.90
60701;DHT22;46541;49.894;10.886;2023-03-14T09:31:09;12.20;99.90
60701;DHT22;46541;49.894;10.886;2023-03-14T09:33:37;12.20;99.90
60701;DHT22;46541;49.894;10.886;2023-03-14T09:36:04;12.30;99.90
60701;DHT22;46541;49.894;10.886;2023-03-14T09:38:31;12.40;99.90
60701;DHT22;46541;49.894;10.886;2023-03-14T09:41:01;12.40;99.90
60701;DHT22;46541;49.894;10.886;2023-03-14T09:43:32;12.50;99.90
60701;DHT22;46541;49.894;10.886;2023-03-14T09:46:01;12.50;99.90
60701;DHT22;46541;49.894;10.886;2023-03-14T09:48:32;12.60;99.90
60701;DHT22;46541;49.894;10.886;2023-03-14T09:51:06;12.60;99.90
60701;DHT22;46541;49.894;10.886;2023-03-14T09:53:42;12.80;99.90
60701;DHT22;46541;49.894;10.886;2023-03-14T09:56:14;12.80;99.90
60701;DHT22;46541;49.894;10.886;2023-03-14T09:58:46;12.90;99.90
60701;DHT22;46541;49.894;10.886;2023-03-14T10:01:18;12.80;99.90
60701;DHT22;46541;49.894;10.886;2023-03-14T10:03:47;12.80;99.90
60701;DHT22;46541;49.894;10.886;2023-03-14T10:06:14;12.80;99.90
60701;DHT22;46541;49.894;10.886;2023-03-14T10:08:42;12.80;99.90
60701;DHT22;46541;49.894;10.886;2023-03-14T10:11:19;12.80;99.90
60701;DHT22;46541;49.894;10.886;2023-03-14T10:16:33;12.80;99.90
60701;DHT22;46541;49.894;10.886;2023-03-14T10:19:10;12.90;99.90
60701;DHT22;46541;49.894;10.886;2023-03-14T10:21:39;12.80;99.90
60701;DHT22;46541;49.894;10.886;2023-03-14T10:26:58;12.80;99.90
60701;DHT22;46541;49.894;10.886;2023-03-14T10:29:25;12.80;99.90
60701;DHT22;46541;49.894;10.886;2023-03-14T10:34:45;12.90;99.90
60701;DHT22;46541;49.894;10.886;2023-03-14T10:37:30;12.90;99.90
60701;DHT22;46541;49.894;10.886;2023-03-14T10:40:02;12.90;99.90
60701;DHT22;46541;49.894;10.886;2023-03-14T10:42:38;12.80;99.90
60701;DHT22;46541;49.894;10.886;2023-03-14T10:51:06;13.00;99.90
60701;DHT22;46541;49.894;10.886;2023-03-14T10:54:01;12.80;99.90
60701;DHT22;46541;49.894;10.886;2023-03-14T10:56:34;12.70;99.90
60701;DHT22;46541;49.894;10.886;2023-03-14T10:59:02;12.70;99.90
60701;DHT22;46541;49.894;10.886;2023-03-14T11:01:36;12.70;99.90
60701;DHT22;46541;49.894;10.886;2023-03-14T11:07:42;13.10;99.90
60701;DHT22;46541;49.894;10.886;2023-03-14T11:21:08;13.50;99.90
60701;DHT22;46541;49.894;10.886;2023-03-14T11:32:02;14.80;99.90
60701;DHT22;46541;49.894;10.886;2023-03-14T11:34:39;15.20;99.90
60701;DHT22;46541;49.894;10.886;2023-03-14T11:37:21;15.20;99.90
60701;DHT22;46541;49.894;10.886;2023-03-14T11:42:24;15.50;99.90
60701;DHT22;46541;49.894;10.886;2023-03-14T11:44:54;15.00;99.90
60701;DHT22;46541;49.894;10.886;2023-03-14T11:47:31;15.10;99.90
60701;DHT22;46541;49.894;10.886;2023-03-14T11:50:24;15.10;99.90
60701;DHT22;46541;49.894;10.886;2023-03-14T11:53:02;15.20;99.90
60701;DHT22;46541;49.894;10.886;2023-03-14T11:55:33;15.30;99.90
60701;DHT22;46541;49.894;10.886;2023-03-14T11:58:23;15.20;99.90
60701;DHT22;46541;49.894;10.886;2023-03-14T12:00:53;15.40;99.90
60701;DHT22;46541;49.894;10.886;2023-03-14T12:03:45;15.50;99.90
60701;DHT22;46541;49.894;10.886;2023-03-14T12:06:35;15.60;99.90
60701;DHT22;46541;49.894;10.886;2023-03-14T12:09:06;15.60;99.90
60701;DHT22;46541;49.894;10.886;2023-03-14T12:11:43;15.70;99.90
60701;DHT22;46541;49.894;10.886;2023-03-14T12:14:24;15.40;99.90
60701;DHT22;46541;49.894;10.886;2023-03-14T12:17:03;15.40;99.90
60701;DHT22;46541;49.894;10.886;2023-03-14T12:19:33;15.50;99.90
60701;DHT22;46541;49.894;10.886;2023-03-14T12:22:21;15.30;99.90
60701;DHT22;46541;49.894;10.886;2023-03-14T12:30:38;15.30;99.90
60701;DHT22;46541;49.894;10.886;2023-03-14T12:35:49;15.00;99.90
60701;DHT22;46541;49.894;10.886;2023-03-14T12:43:28;14.80;99.90
60701;DHT22;46541;49.894;10.886;2023-03-14T12:46:31;14.60;99.90
60701;DHT22;46541;49.894;10.886;2023-03-14T12:51:30;14.30;99.90
60701;DHT22;46541;49.894;10.886;2023-03-14T12:59:34;13.30;99.90
60701;DHT22;46541;49.894;10.886;2023-03-14T13:02:12;13.10;99.90
60701;DHT22;46541;49.894;10.886;2023-03-14T13:04:46;13.00;99.90
60701;DHT22;46541;49.894;10.886;2023-03-14T13:07:34;12.90;99.90
60701;DHT22;46541;49.894;10.886;2023-03-14T13:12:49;12.70;99.90
60701;DHT22;46541;49.894;10.886;2023-03-14T13:15:21;12.60;99.90
60701;DHT22;46541;49.894;10.886;2023-03-14T13:17:51;12.50;99.90
60701;DHT22;46541;49.894;10.886;2023-03-14T13:20:28;12.30;99.90
60701;DHT22;46541;49.894;10.886;2023-03-14T13:22:55;12.10;99.90
60701;DHT22;46541;49.894;10.886;2023-03-14T13:25:22;12.00;99.90
60701;DHT22;46541;49.894;10.886;2023-03-14T13:27:52;11.90;99.90
60701;DHT22;46541;49.894;10.886;2023-03-14T13:30:29;11.70;99.90
60701;DHT22;46541;49.894;10.886;2023-03-14T13:33:04;11.60;99.90
60701;DHT22;46541;49.894;10.886;2023-03-14T13:35:44;11.60;99.90
60701;DHT22;46541;49.894;10.886;2023-03-14T13:38:22;11.40;99.90
60701;DHT22;46541;49.894;10.886;2023-03-14T13:40:51;11.40;99.90
60701;DHT22;46541;49.894;10.886;2023-03-14T13:43:21;11.40;99.90
60701;DHT22;46541;49.894;10.886;2023-03-14T13:45:56;11.40;99.90
60701;DHT22;46541;49.894;10.886;2023-03-14T13:48:26;11.30;99.90
60701;DHT22;46541;49.894;10.886;2023-03-14T13:53:23;11.20;99.90
60701;DHT22;46541;49.894;10.886;2023-03-14T13:55:51;11.10;99.90
60701;DHT22;46541;49.894;10.886;2023-03-14T13:58:27;11.00;99.90
60701;DHT22;46541;49.894;10.886;2023-03-14T14:01:01;10.90;99.90
60701;DHT22;46541;49.894;10.886;2023-03-14T14:03:31;11.00;99.90
60701;DHT22;46541;49.894;10.886;2023-03-14T14:05:59;11.00;99.90
60701;DHT22;46541;49.894;10.886;2023-03-14T14:08:26;11.00;99.90
60701;DHT22;46541;49.894;10.886;2023-03-14T14:11:00;11.10;99.90
60701;DHT22;46541;49.894;10.886;2023-03-14T14:13:30;11.00;99.90
60701;DHT22;46541;49.894;10.886;2023-03-14T14:15:59;10.90;99.90
60701;DHT22;46541;49.894;10.886;2023-03-14T14:18:27;10.90;99.90
60701;DHT22;46541;49.894;10.886;2023-03-14T14:20:55;10.90;99.90
60701;DHT22;46541;49.894;10.886;2023-03-14T14:23:25;10.90;99.90
60701;DHT22;46541;49.894;10.886;2023-03-14T14:25:56;11.00;99.90
60701;DHT22;46541;49.894;10.886;2023-03-14T14:28:32;11.00;99.90
60701;DHT22;46541;49.894;10.886;2023-03-14T14:31:01;11.10;99.90
60701;DHT22;46541;49.894;10.886;2023-03-14T14:33:28;11.30;99.90
60701;DHT22;46541;49.894;10.886;2023-03-14T14:35:56;11.40;99.90
60701;DHT22;46541;49.894;10.886;2023-03-14T14:38:24;11.40;99.90
60701;DHT22;46541;49.894;10.886;2023-03-14T14:40:54;11.60;99.90
60701;DHT22;46541;49.894;10.886;2023-03-14T14:43:27;11.70;99.90
60701;DHT22;46541;49.894;10.886;2023-03-14T14:45:55;11.80;99.90
60701;DHT22;46541;49.894;10.886;2023-03-14T14:48:26;11.60;99.90
60701;DHT22;46541;49.894;10.886;2023-03-14T14:55:53;11.30;99.90
60701;DHT22;46541;49.894;10.886;2023-03-14T15:03:26;11.10;99.90
60701;DHT22;46541;49.894;10.886;2023-03-14T15:05:54;11.10;99.90
60701;DHT22;46541;49.894;10.886;2023-03-14T15:08:25;11.20;99.90
60701;DHT22;46541;49.894;10.886;2023-03-14T15:10:52;11.20;99.90
60701;DHT22;46541;49.894;10.886;2023-03-14T15:13:19;11.20;99.90
60701;DHT22;46541;49.894;10.886;2023-03-14T15:15:46;11.40;99.90
60701;DHT22;46541;49.894;10.886;2023-03-14T15:18:18;11.50;99.90
60701;DHT22;46541;49.894;10.886;2023-03-14T15:20:45;11.50;99.90
60701;DHT22;46541;49.894;10.886;2023-03-14T15:23:14;11.30;99.90
60701;DHT22;46541;49.894;10.886;2023-03-14T15:25:42;11.10;99.90
60701;DHT22;46541;49.894;10.886;2023-03-14T15:28:23;11.00;99.90
60701;DHT22;46541;49.894;10.886;2023-03-14T15:30:53;10.90;99.90
60701;DHT22;46541;49.894;10.886;2023-03-14T15:33:20;10.80;99.90
60701;DHT22;46541;49.894;10.886;2023-03-14T15:35:48;10.80;99.90
60701;DHT22;46541;49.894;10.886;2023-03-14T15:38:17;10.80;99.90
60701;DHT22;46541;49.894;10.886;2023-03-14T15:40:46;10.90;99.90
60701;DHT22;46541;49.894;10.886;2023-03-14T15:43:13;10.70;99.90
60701;DHT22;46541;49.894;10.886;2023-03-14T15:45:39;10.80;99.90
60701;DHT22;46541;49.894;10.886;2023-03-14T15:48:21;10.90;99.90
60701;DHT22;46541;49.894;10.886;2023-03-14T15:50:48;10.80;99.90
60701;DHT22;46541;49.894;10.886;2023-03-14T15:53:14;10.80;99.90
60701;DHT22;46541;49.894;10.886;2023-03-14T15:55:41;10.80;99.90
60701;DHT22;46541;49.894;10.886;2023-03-14T15:58:16;10.80;99.90
60701;DHT22;46541;49.894;10.886;2023-03-14T16:00:47;10.70;99.90
60701;DHT22;46541;49.894;10.886;2023-03-14T16:03:14;10.70;99.90
60701;DHT22;46541;49.894;10.886;2023-03-14T16:05:41;10.70;99.90
60701;DHT22;46541;49.894;10.886;2023-03-14T16:08:08;10.70;99.90
60701;DHT22;46541;49.894;10.886;2023-03-14T16:10:35;10.50;99.90
60701;DHT22;46541;49.894;10.886;2023-03-14T16:13:02;10.40;99.90
60701;DHT22;46541;49.894;10.886;2023-03-14T16:15:29;10.40;99.90
60701;DHT22;46541;49.894;10.886;2023-03-14T16:17:56;10.20;99.90
60701;DHT22;46541;49.894;10.886;2023-03-14T16:20:23;10.30;99.90
60701;DHT22;46541;49.894;10.886;2023-03-14T16:22:50;10.30;99.90
60701;DHT22;46541;49.894;10.886;2023-03-14T16:25:16;10.30;99.90
60701;DHT22;46541;49.894;10.886;2023-03-14T16:27:44;10.30;99.90
60701;DHT22;46541;49.894;10.886;2023-03-14T16:30:11;10.10;99.90
60701;DHT22;46541;49.894;10.886;2023-03-14T16:32:39;9.80;99.90
60701;DHT22;46541;49.894;10.886;2023-03-14T16:35:06;9.60;99.90
60701;DHT22;46541;49.894;10.886;2023-03-14T16:37:33;9.50;99.90
60701;DHT22;46541;49.894;10.886;2023-03-14T16:40:00;9.40;99.90
60701;DHT22;46541;49.894;10.886;2023-03-14T16:42:38;9.30;99.90
60701;DHT22;46541;49.894;10.886;2023-03-14T16:45:24;9.20;99.90
60701;DHT22;46541;49.894;10.886;2023-03-14T16:47:51;9.20;99.90